Time;durP1;ratioP1;P1;durP2;ratioP2;P2;SDS_P1;SDS_P2;PMS_P1;PMS_P2;Temp;Humidity;BMP_temperature;BMP_pressure;BME280_temperature;BME280_humidity;BME280_pressure;Samples;Min_cycle;Max_cycle;Signal;HPM_P1;HPM_P2
2021/10/16 00:00:29;;;;;;;18.58;8.63;;;;;;;6.73;63.08;100201.19;4412767;32;32798;-85
2021/10/16 00:02:57;;;;;;;18.00;8.57;;;;;;;6.68;63.73;100203.91;4394133;32;34208;-85
2021/10/16 00:05:24;;;;;;;15.23;8.23;;;;;;;6.66;64.00;100197.84;4391676;32;33768;-85
2021/10/16 00:07:52;;;;;;;17.25;8.32;;;;;;;6.72;64.27;100202.94;4406334;32;33283;-85
2021/10/16 00:10:20;;;;;;;17.17;8.38;;;;;;;6.91;63.78;100204.28;4400017;32;33337;-86
2021/10/16 00:12:48;;;;;;;11.70;6.37;;;;;;;6.99;63.90;100214.63;4392624;32;33612;-85
2021/10/16 00:15:16;;;;;;;14.93;7.30;;;;;;;7.08;63.88;100196.03;4403787;32;33795;-85
2021/10/16 00:17:45;;;;;;;18.48;8.13;;;;;;;7.02;64.34;100208.41;4406144;32;33943;-84
2021/10/16 00:20:12;;;;;;;19.67;10.27;;;;;;;7.21;63.91;100201.84;4405364;32;32366;-84
2021/10/16 00:22:40;;;;;;;17.33;8.13;;;;;;;7.23;63.99;100202.69;4405163;32;33580;-84
2021/10/16 00:25:08;;;;;;;15.00;8.32;;;;;;;7.49;63.20;100203.81;4398128;32;34836;-85
2021/10/16 00:27:36;;;;;;;16.23;8.82;;;;;;;7.52;63.31;100203.75;4388614;32;34448;-85
2021/10/16 00:30:04;;;;;;;18.10;9.25;;;;;;;7.40;64.33;100195.25;4381362;32;33590;-84
2021/10/16 00:32:31;;;;;;;12.77;6.60;;;;;;;7.53;64.02;100192.31;4370168;32;32901;-84
2021/10/16 00:34:59;;;;;;;15.35;8.05;;;;;;;7.79;63.13;100184.66;4389705;32;33023;-84
2021/10/16 00:37:27;;;;;;;17.60;8.80;;;;;;;7.85;62.73;100192.38;4390876;32;34634;-84
2021/10/16 00:39:55;;;;;;;14.40;8.05;;;;;;;7.87;62.54;100180.03;4378832;32;33479;-84
2021/10/16 00:42:22;;;;;;;14.35;6.95;;;;;;;7.85;62.84;100179.22;4390798;32;33657;-84
2021/10/16 00:44:50;;;;;;;15.13;7.57;;;;;;;7.77;63.24;100182.94;4387588;32;33649;-84
2021/10/16 00:47:18;;;;;;;11.55;6.37;;;;;;;8.15;61.90;100176.66;4390414;32;32482;-84
2021/10/16 00:49:46;;;;;;;10.68;6.85;;;;;;;7.88;62.90;100179.16;4386215;32;33059;-85
2021/10/16 00:52:14;;;;;;;10.25;5.82;;;;;;;7.84;63.17;100169.63;4384279;32;33886;-85
2021/10/16 00:54:42;;;;;;;9.23;4.93;;;;;;;7.86;63.22;100170.44;4391149;32;32974;-85
2021/10/16 00:57:11;;;;;;;8.27;5.25;;;;;;;7.82;63.79;100165.28;4365737;32;32384;-85
2021/10/16 00:59:38;;;;;;;12.65;5.93;;;;;;;7.94;63.53;100171.09;4378524;32;31834;-84
2021/10/16 01:02:07;;;;;;;10.02;5.62;;;;;;;8.07;62.89;100165.47;4365890;32;33812;-84
2021/10/16 01:04:35;;;;;;;9.18;4.62;;;;;;;8.07;62.77;100162.84;4390896;32;32920;-84
2021/10/16 01:07:03;;;;;;;10.60;5.37;;;;;;;8.07;63.17;100161.09;4389698;32;32539;-84
2021/10/16 01:09:31;;;;;;;8.55;4.22;;;;;;;8.07;63.46;100155.84;4384327;32;33972;-84
2021/10/16 01:11:59;;;;;;;9.50;5.12;;;;;;;8.06;63.80;100156.72;4390486;32;33849;-83
2021/10/16 01:14:26;;;;;;;7.65;4.50;;;;;;;8.16;63.39;100157.34;4377473;32;33296;-84
2021/10/16 01:16:56;;;;;;;7.82;4.72;;;;;;;8.13;63.68;100154.81;4388769;32;33660;-83
2021/10/16 01:19:25;;;;;;;7.37;4.32;;;;;;;8.35;62.90;100158.53;4383252;32;33314;-84
2021/10/16 01:21:55;;;;;;;8.43;4.35;;;;;;;8.25;63.08;100149.19;4377700;32;34361;-84
2021/10/16 01:24:23;;;;;;;6.68;4.40;;;;;;;8.26;63.00;100140.41;4384956;32;34492;-86
2021/10/16 01:26:51;;;;;;;8.23;4.78;;;;;;;8.35;63.00;100140.12;4391655;32;33523;-85
2021/10/16 01:29:24;;;;;;;8.32;4.75;;;;;;;8.35;63.14;100137.47;4379753;32;32392;-85
2021/10/16 01:31:52;;;;;;;10.15;6.00;;;;;;;8.50;62.80;100127.44;4403239;32;34549;-85
2021/10/16 01:34:20;;;;;;;10.02;6.05;;;;;;;8.38;62.94;100134.81;4377726;32;33879;-85
2021/10/16 01:36:49;;;;;;;11.20;5.82;;;;;;;8.43;62.74;100132.91;4390696;32;34264;-85
2021/10/16 01:39:19;;;;;;;11.00;6.05;;;;;;;8.63;61.98;100124.41;4392414;32;33226;-85
2021/10/16 01:41:48;;;;;;;9.35;5.40;;;;;;;8.59;62.31;100121.91;4398300;32;33437;-85
2021/10/16 01:44:16;;;;;;;10.40;5.85;;;;;;;8.60;62.18;100126.28;4396930;32;34086;-85
2021/10/16 01:46:44;;;;;;;8.90;6.35;;;;;;;8.53;62.28;100119.47;4391405;32;33590;-85
2021/10/16 01:49:15;;;;;;;9.90;6.25;;;;;;;8.67;61.86;100125.19;4380200;32;31260;-85
2021/10/16 01:51:45;;;;;;;10.60;5.95;;;;;;;8.91;60.95;100131.44;4392672;32;33583;-85
2021/10/16 01:54:14;;;;;;;11.27;6.28;;;;;;;8.57;61.89;100137.75;4390555;32;34749;-85
2021/10/16 01:56:45;;;;;;;8.70;5.35;;;;;;;8.52;62.19;100137.03;4405410;32;34219;-85
2021/10/16 01:59:19;;;;;;;11.43;5.75;;;;;;;8.40;62.66;100140.00;4394375;32;32250;-85
2021/10/16 02:02:07;;;;;;;9.60;5.55;;;;;;;8.51;62.35;100135.31;4396905;32;33020;-85
2021/10/16 02:04:36;;;;;;;11.43;5.90;;;;;;;8.52;62.62;100141.44;4382088;32;33361;-85
2021/10/16 02:07:04;;;;;;;9.80;5.75;;;;;;;8.62;62.44;100143.75;4406920;32;34138;-85
2021/10/16 02:09:32;;;;;;;10.57;5.65;;;;;;;8.62;62.43;100154.28;4394382;32;33236;-85
2021/10/16 02:12:00;;;;;;;13.02;5.45;;;;;;;8.68;62.27;100150.59;4393776;32;34655;-85
2021/10/16 02:14:30;;;;;;;8.85;5.28;;;;;;;8.63;62.52;100147.22;4407134;32;33704;-85
2021/10/16 02:16:58;;;;;;;8.45;4.97;;;;;;;8.62;62.69;100153.41;4405696;32;34232;-85
2021/10/16 02:19:26;;;;;;;9.75;5.45;;;;;;;8.62;62.94;100153.41;4394213;32;33644;-85
2021/10/16 02:21:54;;;;;;;9.35;5.40;;;;;;;8.72;62.80;100152.22;4394322;32;33794;-85
2021/10/16 02:24:23;;;;;;;11.43;5.70;;;;;;;8.73;62.81;100148.66;4391609;32;33056;-85
2021/10/16 02:26:51;;;;;;;10.18;5.97;;;;;;;8.80;62.71;100141.47;4397648;32;34355;-85
2021/10/16 02:29:20;;;;;;;11.05;6.20;;;;;;;8.84;62.90;100140.47;4391862;32;34420;-85
2021/10/16 02:31:48;;;;;;;9.40;5.32;;;;;;;8.85;62.91;100145.69;4382255;32;33534;-85
2021/10/16 02:34:16;;;;;;;11.18;5.72;;;;;;;8.86;63.20;100147.38;4399711;32;34595;-86
2021/10/16 02:36:44;;;;;;;8.20;5.05;;;;;;;8.87;62.74;100149.09;4402314;32;33733;-85
2021/10/16 02:39:12;;;;;;;9.30;4.75;;;;;;;8.76;63.52;100150.38;4399062;32;32814;-85
2021/10/16 02:41:40;;;;;;;7.97;4.70;;;;;;;8.86;63.29;100143.91;4401238;32;33320;-85
2021/10/16 02:44:07;;;;;;;7.97;4.93;;;;;;;8.82;63.53;100145.75;4399132;32;33625;-85
2021/10/16 02:46:35;;;;;;;6.07;4.03;;;;;;;8.87;63.45;100142.97;4398605;32;32448;-85
2021/10/16 02:49:03;;;;;;;7.40;4.43;;;;;;;8.84;63.67;100151.00;4386128;32;33287;-85
2021/10/16 02:51:31;;;;;;;6.80;4.47;;;;;;;8.91;63.59;100153.38;4387533;32;33072;-86
2021/10/16 02:53:59;;;;;;;6.40;4.05;;;;;;;8.95;63.54;100152.37;4400409;32;33072;-86
2021/10/16 02:56:27;;;;;;;8.40;4.40;;;;;;;9.00;63.29;100146.09;4404818;32;33934;-87
2021/10/16 02:58:56;;;;;;;6.62;5.00;;;;;;;8.90;64.15;100149.03;4398389;32;32604;-86
2021/10/16 03:01:23;;;;;;;8.02;4.47;;;;;;;9.06;63.65;100151.16;4387240;32;33343;-86
2021/10/16 03:03:51;;;;;;;7.18;4.45;;;;;;;9.05;63.81;100147.69;4388251;32;34399;-87
2021/10/16 03:06:19;;;;;;;11.18;4.82;;;;;;;9.15;63.59;100148.25;4401407;32;33877;-87
2021/10/16 03:08:47;;;;;;;7.62;4.32;;;;;;;9.02;64.02;100154.81;4400053;32;33776;-87
2021/10/16 03:11:15;;;;;;;8.55;5.30;;;;;;;8.92;64.40;100139.28;4400881;32;34665;-87
2021/10/16 03:13:44;;;;;;;9.05;5.30;;;;;;;8.91;64.60;100145.47;4399375;32;33885;-86
2021/10/16 03:16:13;;;;;;;12.40;6.35;;;;;;;8.98;64.64;100141.75;4400887;32;34580;-86
2021/10/16 03:18:41;;;;;;;7.43;4.80;;;;;;;9.11;64.12;100141.34;4400952;32;34032;-87
2021/10/16 03:21:10;;;;;;;10.60;5.70;;;;;;;9.09;64.14;100138.75;4401034;32;33380;-86
2021/10/16 03:23:37;;;;;;;14.73;7.30;;;;;;;9.02;64.50;100146.91;4375546;32;34069;-87
2021/10/16 03:26:05;;;;;;;18.85;9.68;;;;;;;9.42;63.27;100135.94;4386530;32;33459;-83
2021/10/16 03:28:33;;;;;;;19.37;10.30;;;;;;;9.28;63.88;100135.53;4405123;32;32093;-85
2021/10/16 03:31:01;;;;;;;20.08;10.88;;;;;;;9.13;64.63;100145.66;4404856;32;34328;-85
2021/10/16 03:33:28;;;;;;;19.55;9.68;;;;;;;9.12;64.78;100137.81;4378713;32;33221;-85
2021/10/16 03:35:57;;;;;;;22.55;11.35;;;;;;;9.34;64.27;100133.53;4405921;32;33812;-85
2021/10/16 03:38:27;;;;;;;18.48;10.50;;;;;;;9.31;64.62;100143.34;4403562;32;33489;-86
2021/10/16 03:40:55;;;;;;;21.05;9.73;;;;;;;9.53;63.86;100139.06;4390847;32;33054;-86
2021/10/16 03:43:22;;;;;;;28.30;11.82;;;;;;;9.12;64.84;100137.81;4406104;32;34324;-86
2021/10/16 03:45:50;;;;;;;25.77;12.82;;;;;;;9.37;64.29;100132.59;4403990;32;33410;-87
2021/10/16 03:48:18;;;;;;;35.90;15.40;;;;;;;9.45;63.98;100126.16;4391611;32;33335;-85
2021/10/16 03:50:46;;;;;;;40.88;15.32;;;;;;;9.51;63.75;100129.50;4393169;32;34704;-86
2021/10/16 03:53:16;;;;;;;27.33;12.93;;;;;;;9.64;63.58;100131.66;4386218;32;34045;-86
2021/10/16 03:55:44;;;;;;;25.90;11.60;;;;;;;9.64;63.72;100130.81;4403832;32;33828;-85
2021/10/16 03:58:12;;;;;;;25.92;11.82;;;;;;;9.51;63.76;100132.13;4374586;32;32217;-85
2021/10/16 04:00:40;;;;;;;31.17;13.10;;;;;;;9.42;64.18;100128.87;4382313;32;33974;-85
2021/10/16 04:03:08;;;;;;;24.45;10.95;;;;;;;9.59;64.10;100132.72;4381308;32;33613;-85
2021/10/16 04:05:36;;;;;;;27.98;14.10;;;;;;;9.64;63.94;100131.66;4393786;32;34487;-84
2021/10/16 04:08:05;;;;;;;30.17;15.32;;;;;;;9.67;63.90;100125.41;4383369;32;31979;-84
2021/10/16 04:10:33;;;;;;;16.45;9.82;;;;;;;9.74;63.61;100122.53;4393802;32;34627;-84
2021/10/16 04:13:03;;;;;;;21.52;11.77;;;;;;;9.82;63.36;100124.87;4394174;32;32665;-86
2021/10/16 04:15:32;;;;;;;15.75;9.35;;;;;;;9.83;63.43;100118.69;4397827;32;33341;-86
2021/10/16 04:17:59;;;;;;;16.62;8.98;;;;;;;9.94;63.12;100129.72;4381403;32;35970;-85
2021/10/16 04:20:27;;;;;;;15.00;7.82;;;;;;;9.96;62.73;100127.88;4393553;32;32375;-85
2021/10/16 04:22:55;;;;;;;19.42;9.50;;;;;;;9.88;63.11;100129.09;4392933;32;33829;-85
2021/10/16 04:25:24;;;;;;;18.75;9.82;;;;;;;9.91;63.15;100124.53;4386101;32;33788;-84
2021/10/16 04:27:51;;;;;;;9.95;6.70;;;;;;;9.88;63.23;100123.81;4385610;32;33367;-85
2021/10/16 04:30:19;;;;;;;16.90;8.95;;;;;;;10.05;62.77;100136.38;4375367;32;32907;-85
2021/10/16 04:32:48;;;;;;;16.08;9.05;;;;;;;9.97;63.06;100132.25;4375740;32;33453;-87
2021/10/16 04:35:16;;;;;;;18.25;9.50;;;;;;;10.01;62.96;100131.19;4366192;32;33834;-87
2021/10/16 04:37:44;;;;;;;16.00;8.55;;;;;;;9.98;63.13;100126.06;4375030;32;32935;-86
2021/10/16 04:40:17;;;;;;;14.27;8.02;;;;;;;10.05;63.14;100136.38;4360373;32;32634;-86
2021/10/16 04:42:44;;;;;;;;;;;;;;;10.09;63.01;100133.56;4375286;32;33305;-84
2021/10/16 04:45:13;;;;;;;16.65;7.55;;;;;;;10.12;63.04;100127.34;4377423;32;32220;-85
2021/10/16 04:47:40;;;;;;;9.38;6.10;;;;;;;9.97;63.60;100136.69;4376043;32;33374;-85
2021/10/16 04:50:10;;;;;;;10.70;6.68;;;;;;;10.23;62.54;100133.06;4386632;32;33811;-85
2021/10/16 04:52:39;;;;;;;9.00;6.10;;;;;;;10.10;63.09;100135.28;4362803;32;33745;-86
2021/10/16 04:55:07;;;;;;;11.93;7.05;;;;;;;10.11;63.13;100137.03;4376445;32;34027;-86
2021/10/16 04:57:35;;;;;;;14.23;6.57;;;;;;;10.07;63.14;100124.87;4379624;32;33527;-86
2021/10/16 05:00:06;;;;;;;10.15;6.62;;;;;;;10.01;63.27;100136.47;4364456;32;30535;-86
2021/10/16 05:02:35;;;;;;;;;;;;;;;10.29;62.38;100135.50;4388389;32;34850;-86
2021/10/16 05:05:04;;;;;;;12.95;6.25;;;;;;;10.16;62.95;100131.56;4385935;32;34045;-85
2021/10/16 05:07:32;;;;;;;12.50;6.55;;;;;;;10.13;63.18;100136.97;4387732;32;34191;-85
2021/10/16 05:10:03;;;;;;;11.20;5.22;;;;;;;10.00;63.91;100144.47;4375163;32;32902;-85
2021/10/16 05:12:31;;;;;;;13.35;6.57;;;;;;;10.20;63.25;100130.53;4383551;32;32144;-84
2021/10/16 05:14:58;;;;;;;10.07;6.50;;;;;;;10.21;63.42;100137.56;4387640;32;33648;-85
2021/10/16 05:17:29;;;;;;;10.70;6.82;;;;;;;10.16;63.68;100142.13;4387077;32;33393;-84
2021/10/16 05:19:57;;;;;;;11.00;6.30;;;;;;;10.22;63.56;100137.50;4387982;32;34133;-84
2021/10/16 05:22:25;;;;;;;11.00;6.22;;;;;;;10.26;63.49;100140.91;4373958;32;34665;-85
2021/10/16 05:24:52;;;;;;;9.15;6.55;;;;;;;10.30;63.43;100142.50;4365323;32;33007;-85
2021/10/16 05:27:20;;;;;;;11.23;6.47;;;;;;;10.15;63.77;100149.19;4377333;32;32687;-85
2021/10/16 05:29:48;;;;;;;10.77;6.70;;;;;;;10.30;63.43;100145.13;4387790;32;31843;-85
2021/10/16 05:32:15;;;;;;;9.35;6.12;;;;;;;10.23;63.60;100149.75;4377830;32;34797;-85
2021/10/16 05:34:43;;;;;;;8.77;6.22;;;;;;;10.35;63.23;100145.84;4390240;32;33438;-85
2021/10/16 05:37:11;;;;;;;10.85;6.20;;;;;;;10.29;63.54;100148.69;4390902;32;33424;-85
2021/10/16 05:39:39;;;;;;;14.98;7.75;;;;;;;10.62;62.50;100149.22;4389105;32;32855;-84
2021/10/16 05:42:08;;;;;;;11.90;6.07;;;;;;;10.49;62.85;100148.84;4390131;32;34683;-85
2021/10/16 05:44:35;;;;;;;12.50;6.72;;;;;;;10.27;63.58;100157.62;4403622;32;31999;-85
2021/10/16 05:47:03;;;;;;;8.88;5.53;;;;;;;10.35;63.61;100147.59;4413484;32;32470;-85
2021/10/16 05:49:32;;;;;;;10.43;6.55;;;;;;;10.45;63.51;100149.88;4402507;32;34172;-85
2021/10/16 05:52:00;;;;;;;11.40;6.25;;;;;;;10.65;63.02;100150.91;4379289;32;36167;-85
2021/10/16 05:54:28;;;;;;;13.27;6.18;;;;;;;10.48;63.77;100162.94;4388257;32;33496;-85
2021/10/16 05:56:56;;;;;;;12.98;6.60;;;;;;;10.59;63.60;100159.06;4402041;32;32159;-85
2021/10/16 05:59:24;;;;;;;14.35;6.93;;;;;;;10.64;63.53;100159.75;4390500;32;33069;-85
2021/10/16 06:01:52;;;;;;;15.13;7.37;;;;;;;11.00;62.19;100160.94;4389426;32;34944;-85
2021/10/16 06:04:23;;;;;;;14.57;7.60;;;;;;;10.77;63.01;100158.31;4393910;32;33862;-83
2021/10/16 06:06:51;;;;;;;12.13;6.47;;;;;;;10.82;63.08;100161.66;4374222;32;31505;-83
2021/10/16 06:09:19;;;;;;;12.32;7.35;;;;;;;10.96;62.74;100167.25;4401847;32;34166;-83
2021/10/16 06:11:47;;;;;;;12.20;7.50;;;;;;;10.83;63.43;100171.31;4403220;32;34845;-85
2021/10/16 06:14:15;;;;;;;17.30;8.68;;;;;;;10.87;63.47;100170.28;4405693;32;33029;-85
2021/10/16 06:16:43;;;;;;;15.07;7.85;;;;;;;10.84;63.46;100180.97;4392027;32;34118;-85
2021/10/16 06:19:11;;;;;;;16.42;8.23;;;;;;;10.98;63.02;100178.63;4392993;32;33383;-85
2021/10/16 06:21:39;;;;;;;14.05;6.90;;;;;;;11.14;62.47;100183.31;4405854;32;33436;-85
2021/10/16 06:24:07;;;;;;;11.95;7.05;;;;;;;11.12;63.06;100177.25;4380249;32;34240;-85
2021/10/16 06:26:35;;;;;;;14.00;7.97;;;;;;;11.30;62.81;100181.78;4392912;32;33783;-85
2021/10/16 06:29:03;;;;;;;40.47;14.40;;;;;;;11.65;61.46;100182.09;4394062;32;34586;-85
2021/10/16 06:31:31;;;;;;;29.25;13.35;;;;;;;11.73;61.16;100187.94;4404504;32;33155;-85
2021/10/16 06:33:59;;;;;;;22.08;9.93;;;;;;;11.64;61.16;100183.91;4387892;32;33955;-85
2021/10/16 06:36:27;;;;;;;18.55;9.35;;;;;;;11.47;60.82;100192.50;4379024;32;32503;-91
2021/10/16 06:38:55;;;;;;;14.32;6.60;;;;;;;11.49;61.47;100189.84;4382894;32;33823;-89
2021/10/16 06:41:23;;;;;;;14.10;7.43;;;;;;;11.79;60.61;100188.53;4395378;32;32633;-84
2021/10/16 06:43:53;;;;;;;18.23;7.78;;;;;;;11.77;60.30;100189.50;4396012;32;33000;-85
2021/10/16 06:46:21;;;;;;;17.62;8.07;;;;;;;11.83;59.94;100188.44;4367694;32;33210;-85
2021/10/16 06:48:51;;;;;;;17.92;7.37;;;;;;;11.92;59.39;100196.84;4402521;32;33511;-85
2021/10/16 06:51:19;;;;;;;11.85;7.18;;;;;;;12.05;59.04;100190.06;4391272;32;32595;-84
2021/10/16 06:53:47;;;;;;;10.38;6.12;;;;;;;12.27;58.83;100199.75;4401850;32;34039;-85
2021/10/16 06:56:16;;;;;;;11.95;7.57;;;;;;;12.25;59.44;100198.97;4396361;32;34110;-85
2021/10/16 06:58:44;;;;;;;11.77;5.87;;;;;;;12.34;59.67;100201.16;4395245;32;33875;-85
2021/10/16 07:01:12;;;;;;;10.82;6.50;;;;;;;12.22;60.05;100201.72;4403354;32;33997;-85
2021/10/16 07:03:41;;;;;;;11.82;6.20;;;;;;;12.27;59.64;100199.75;4397274;32;34718;-85
2021/10/16 07:06:11;;;;;;;10.07;6.15;;;;;;;12.30;59.94;100207.56;4392533;32;33067;-85
2021/10/16 07:08:40;;;;;;;9.93;6.50;;;;;;;12.08;61.09;100214.72;4400701;32;33589;-85
2021/10/16 07:11:11;;;;;;;11.25;7.15;;;;;;;12.24;61.21;100211.31;4395733;32;34102;-85
2021/10/16 07:13:39;;;;;;;13.88;7.87;;;;;;;12.32;60.15;100208.34;4392673;32;32824;-85
2021/10/16 07:16:08;;;;;;;13.45;8.45;;;;;;;11.99;63.48;100213.31;4404721;32;34154;-85
2021/10/16 07:18:36;;;;;;;12.48;7.28;;;;;;;12.12;61.95;100206.56;4367742;32;33001;-85
2021/10/16 07:21:03;;;;;;;16.12;9.00;;;;;;;12.38;60.57;100207.19;4402256;32;33847;-85
2021/10/16 07:23:52;;;;;;;10.68;6.47;;;;;;;12.31;60.63;100206.63;4395079;32;34171;-84
2021/10/16 07:26:19;;;;;;;9.82;6.20;;;;;;;12.42;59.40;100212.28;4395157;32;32647;-85
2021/10/16 07:28:47;;;;;;;8.82;5.70;;;;;;;12.43;58.48;100219.31;4382264;32;32715;-85
2021/10/16 07:31:14;;;;;;;11.60;5.95;;;;;;;12.51;57.81;100222.47;4384288;32;32201;-85
2021/10/16 07:33:42;;;;;;;9.05;5.85;;;;;;;12.60;56.90;100223.84;4394790;32;32805;-85
2021/10/16 07:36:09;;;;;;;10.75;5.60;;;;;;;12.63;57.21;100228.13;4401249;32;32994;-85
2021/10/16 07:38:37;;;;;;;10.02;5.78;;;;;;;12.73;56.93;100216.22;4418162;32;33892;-87
2021/10/16 07:41:05;;;;;;;7.50;5.20;;;;;;;12.65;56.30;100226.28;4405099;32;33325;-86
2021/10/16 07:43:32;;;;;;;9.35;5.87;;;;;;;12.57;57.45;100226.63;4392667;32;33718;-84
2021/10/16 07:46:00;;;;;;;10.43;6.03;;;;;;;12.86;57.65;100222.66;4381062;32;33462;-86
2021/10/16 07:48:28;;;;;;;11.43;6.15;;;;;;;12.73;57.19;100224.16;4395185;32;34705;-87
2021/10/16 07:50:55;;;;;;;8.45;5.55;;;;;;;12.89;56.38;100225.16;4406391;32;33038;-87
2021/10/16 07:53:23;;;;;;;7.95;5.55;;;;;;;13.18;55.08;100225.59;4400318;32;33873;-87
2021/10/16 07:55:51;;;;;;;10.25;5.60;;;;;;;13.19;53.53;100222.00;4381306;32;32832;-86
2021/10/16 07:58:20;;;;;;;9.55;5.82;;;;;;;13.14;53.18;100229.31;4382293;32;32530;-87
2021/10/16 08:00:48;;;;;;;9.70;6.62;;;;;;;13.41;52.27;100230.69;4387625;32;33951;-87
2021/10/16 08:03:16;;;;;;;10.93;6.43;;;;;;;13.03;52.24;100228.03;4393241;32;33593;-85
2021/10/16 08:05:44;;;;;;;9.25;5.65;;;;;;;13.02;52.41;100236.91;4387040;32;32299;-86
2021/10/16 08:08:12;;;;;;;8.95;5.43;;;;;;;13.20;52.00;100235.19;4393113;32;35146;-86
2021/10/16 08:10:40;;;;;;;9.25;4.90;;;;;;;13.67;51.87;100231.19;4390941;32;34335;-86
2021/10/16 08:13:11;;;;;;;8.30;5.53;;;;;;;13.91;50.40;100232.63;4381991;32;33088;-85
2021/10/16 08:15:38;;;;;;;10.43;5.87;;;;;;;14.07;51.20;100228.25;4392972;32;32793;-86
2021/10/16 08:18:08;;;;;;;7.87;5.00;;;;;;;14.13;50.03;100234.19;4400826;32;32953;-86
2021/10/16 08:20:35;;;;;;;7.35;5.12;;;;;;;14.34;48.95;100225.12;4397071;32;34258;-86
2021/10/16 08:23:05;;;;;;;8.48;6.07;;;;;;;14.50;48.76;100231.34;4360796;32;33875;-86
2021/10/16 08:25:33;;;;;;;10.65;5.70;;;;;;;14.32;49.13;100232.28;4400747;32;33443;-86
2021/10/16 08:28:14;;;;;;;12.00;5.97;;;;;;;14.68;48.26;100228.66;4371393;32;32590;-86
2021/10/16 08:30:50;;;;;;;9.35;6.00;;;;;;;14.87;48.17;100229.38;4366491;32;34015;-86
2021/10/16 08:33:18;;;;;;;8.00;5.00;;;;;;;15.00;48.41;100232.22;4388588;32;32891;-85
2021/10/16 08:35:46;;;;;;;8.25;4.80;;;;;;;14.95;46.91;100232.47;4374954;32;108432;-86
2021/10/16 08:38:14;;;;;;;7.97;4.87;;;;;;;14.90;46.20;100233.66;4386586;32;34661;-86
2021/10/16 08:40:43;;;;;;;6.28;4.50;;;;;;;15.02;46.00;100239.19;4376146;32;34750;-85
2021/10/16 08:43:11;;;;;;;8.45;5.18;;;;;;;15.16;45.66;100235.75;4372096;32;33303;-86
2021/10/16 08:45:39;;;;;;;8.32;5.05;;;;;;;15.01;44.99;100226.84;4375864;32;33967;-86
2021/10/16 08:48:07;;;;;;;6.37;4.00;;;;;;;15.72;44.21;100229.03;4381201;32;33711;-86
2021/10/16 08:50:35;;;;;;;9.25;5.10;;;;;;;16.00;45.00;100220.31;4385865;32;33040;-86
2021/10/16 08:53:03;;;;;;;7.95;5.68;;;;;;;15.74;45.55;100223.63;4362867;32;33103;-86
2021/10/16 08:55:30;;;;;;;7.00;5.18;;;;;;;15.93;44.36;100226.06;4375474;32;32306;-86
2021/10/16 08:57:58;;;;;;;12.35;5.82;;;;;;;16.22;42.63;100227.00;4370906;32;32586;-86
2021/10/16 09:00:53;;;;;;;7.82;5.12;;;;;;;16.33;42.81;100224.53;4366855;32;33858;-86
2021/10/16 09:03:31;;;;;;;12.48;7.28;;;;;;;16.36;43.27;100219.87;4378550;32;33836;-86
2021/10/16 09:06:03;;;;;;;10.98;7.70;;;;;;;16.01;44.19;100230.00;4386748;32;33610;-86
2021/10/16 09:08:51;;;;;;;;;;;;;;;15.52;45.37;100235.47;4379703;32;34722;-86
2021/10/16 09:11:32;;;;;;;11.32;5.65;;;;;;;15.89;43.35;100230.72;4395099;32;33554;-87
2021/10/16 09:14:06;;;;;;;10.43;6.70;;;;;;;15.80;45.22;100232.09;4391618;32;33774;-86
2021/10/16 09:16:40;;;;;;;9.10;4.85;;;;;;;15.93;43.19;100232.25;4389053;32;32750;-86
2021/10/16 09:19:18;;;;;;;19.20;6.85;;;;;;;16.25;42.90;100242.81;4379209;32;33845;-86
2021/10/16 09:21:49;;;;;;;13.45;8.32;;;;;;;16.32;44.84;100244.13;4366904;32;33332;-86
2021/10/16 09:24:41;;;;;;;7.70;5.10;;;;;;;16.54;45.05;100239.22;4379241;32;34369;-86
2021/10/16 09:27:44;;;;;;;15.85;8.40;;;;;;;16.45;43.08;100246.91;4383361;32;33319;-86
2021/10/16 09:30:12;;;;;;;7.57;4.82;;;;;;;16.46;44.56;100238.81;4392812;32;33758;-86
2021/10/16 09:32:39;;;;;;;11.32;6.62;;;;;;;16.83;41.99;100233.91;4393167;32;34837;-86
2021/10/16 09:35:12;;;;;;;6.12;4.40;;;;;;;16.97;42.72;100238.38;4391229;32;33223;-86
2021/10/16 09:37:53;;;;;;;8.32;4.40;;;;;;;17.19;41.32;100237.91;4404050;32;33487;-86
2021/10/16 09:40:50;;;;;;;8.80;4.57;;;;;;;17.42;40.95;100239.91;4406714;32;33802;-86
2021/10/16 09:43:22;;;;;;;7.93;4.82;;;;;;;17.46;40.27;100236.09;4394090;32;34578;-86
2021/10/16 09:46:13;;;;;;;9.50;5.00;;;;;;;17.47;40.34;100240.50;4373262;32;34167;-87
2021/10/16 09:48:42;;;;;;;5.82;4.60;;;;;;;17.48;41.90;100238.69;4398566;32;33007;-86
2021/10/16 09:51:09;;;;;;;9.05;5.53;;;;;;;18.19;39.66;100229.50;4406289;32;33850;-86
2021/10/16 09:53:39;;;;;;;7.05;5.10;;;;;;;18.32;39.57;100244.56;4392803;32;33375;-86
2021/10/16 09:56:07;;;;;;;6.97;4.97;;;;;;;18.40;39.40;100239.56;4402916;32;32879;-86
2021/10/16 09:58:35;;;;;;;9.60;5.72;;;;;;;18.35;39.52;100233.69;4402163;32;32991;-86
2021/10/16 10:01:03;;;;;;;8.75;5.60;;;;;;;18.59;39.38;100244.47;4395886;32;33622;-87
2021/10/16 10:03:32;;;;;;;9.98;5.55;;;;;;;18.60;39.89;100240.84;4396144;32;34801;-86
2021/10/16 10:05:59;;;;;;;9.98;4.80;;;;;;;18.67;41.35;100244.81;4391077;32;33757;-84
2021/10/16 10:08:27;;;;;;;9.10;5.37;;;;;;;19.14;40.09;100247.78;4389470;32;34133;-86
2021/10/16 10:10:55;;;;;;;8.68;5.80;;;;;;;19.12;38.80;100250.53;4390888;32;34426;-86
2021/10/16 10:13:26;;;;;;;9.55;5.68;;;;;;;18.75;39.80;100243.44;4391145;32;34767;-85
2021/10/16 10:15:54;;;;;;;8.13;5.10;;;;;;;18.95;39.36;100248.25;4408027;32;33026;-87
2021/10/16 10:21:09;;;;;;;11.60;6.30;;;;;;;19.62;37.58;100231.78;4399293;32;33231;-87
2021/10/16 10:23:54;;;;;;;10.00;6.47;;;;;;;19.78;36.78;100242.22;4395484;32;33004;-87
2021/10/16 10:26:24;;;;;;;10.15;6.65;;;;;;;19.28;39.63;100233.41;4395232;32;33204;-87
2021/10/16 10:28:55;;;;;;;11.95;8.10;;;;;;;19.39;39.86;100239.66;4396621;32;34295;-87
2021/10/16 10:31:44;;;;;;;11.80;8.48;;;;;;;19.16;40.25;100238.66;4379496;32;34564;-87
2021/10/16 10:34:16;;;;;;;13.93;8.63;;;;;;;19.51;39.31;100229.84;4382274;32;33619;-87
2021/10/16 10:36:50;;;;;;;11.70;8.00;;;;;;;19.33;40.13;100228.56;4388123;32;32200;-87
2021/10/16 10:39:27;;;;;;;13.35;7.82;;;;;;;18.85;44.18;100239.16;4384343;32;32369;-86
2021/10/16 10:41:55;;;;;;;12.50;8.15;;;;;;;18.84;40.54;100226.72;4393872;32;33190;-89
2021/10/16 10:44:53;;;;;;;12.37;8.60;;;;;;;18.59;40.84;100236.47;4390617;32;32894;-89
2021/10/16 10:47:36;;;;;;;13.30;8.05;;;;;;;18.70;40.89;100227.72;4372645;32;34184;-89
2021/10/16 10:50:06;;;;;;;11.48;8.02;;;;;;;18.53;41.32;100220.00;4378756;32;32112;-89
2021/10/16 10:52:56;;;;;;;12.35;7.97;;;;;;;19.13;40.35;100225.50;4377001;32;34705;-89
2021/10/16 10:55:24;;;;;;;11.98;7.57;;;;;;;19.17;39.88;100226.13;4390510;32;34481;-89
2021/10/16 10:57:57;;;;;;;14.50;8.88;;;;;;;18.72;42.57;100224.94;4374093;32;32358;-89
2021/10/16 11:00:29;;;;;;;13.13;8.05;;;;;;;18.87;42.69;100216.66;4375782;32;33317;-88
2021/10/16 11:02:58;;;;;;;27.48;17.33;;;;;;;19.55;42.18;100217.94;4386420;32;33076;-91
2021/10/16 11:08:10;;;;;;;17.70;9.30;;;;;;;20.22;38.48;100203.97;4385291;32;33659;-87
2021/10/16 11:10:39;;;;;;;11.82;7.25;;;;;;;19.85;40.74;100200.59;4384567;32;33826;-87
2021/10/16 11:13:13;;;;;;;10.60;7.35;;;;;;;20.04;40.64;100200.91;4390502;32;33951;-87
2021/10/16 11:15:43;;;;;;;8.50;7.05;;;;;;;20.69;37.07;100196.75;4380032;32;34090;-87
2021/10/16 11:18:15;;;;;;;9.90;7.07;;;;;;;20.26;40.27;100194.72;4390120;32;34208;-87
2021/10/16 11:20:43;;;;;;;9.75;6.95;;;;;;;20.86;36.39;100190.03;4376381;32;33452;-86
2021/10/16 11:23:21;;;;;;;10.65;7.28;;;;;;;20.55;36.47;100191.62;4365812;32;33755;-87
2021/10/16 11:25:58;;;;;;;12.70;7.80;;;;;;;19.97;38.75;100194.28;4374110;32;34151;-87
2021/10/16 11:28:27;;;;;;;11.25;6.00;;;;;;;20.38;39.23;100187.56;4389261;32;33392;-88
2021/10/16 11:30:56;;;;;;;8.38;6.18;;;;;;;20.82;36.81;100185.87;4376853;32;33368;-87
2021/10/16 11:33:28;;;;;;;9.68;7.25;;;;;;;21.00;36.77;100184.41;4386942;32;34279;-87
2021/10/16 11:36:00;;;;;;;11.30;6.03;;;;;;;20.82;38.67;100180.53;4392061;32;33290;-87
2021/10/16 11:38:33;;;;;;;8.38;5.40;;;;;;;21.16;35.68;100174.12;4392773;32;32668;-87
2021/10/16 11:41:02;;;;;;;9.57;6.57;;;;;;;21.36;36.17;100167.13;4392053;32;31966;-88